Time;durP1;ratioP1;P1;durP2;ratioP2;P2;SDS_P1;SDS_P2;PMS_P1;PMS_P2;Temp;Humidity;BMP_temperature;BMP_pressure;BME280_temperature;BME280_humidity;BME280_pressure;Samples;Min_cycle;Max_cycle;Signal;HPM_P1;HPM_P2
2022/01/27 00:01:28;;;;;;;45.17;19.67;;;;;;;;;;6247750;23;20020;-91
2022/01/27 00:04:13;;;;;;;50.75;19.40;;;;;;;;;;6245683;23;20024;-92
2022/01/27 00:06:54;;;;;;;48.63;20.70;;;;;;;;;;6238571;23;20020;-92
2022/01/27 00:09:50;;;;;;;48.33;21.48;;;;;;;;;;6246294;23;20030;-91
2022/01/27 00:12:31;;;;;;;49.03;19.85;;;;;;;;;;6246304;23;20070;-91
2022/01/27 00:15:12;;;;;;;48.63;20.67;;;;;;;;;;6245918;23;20023;-92
2022/01/27 00:18:00;;;;;;;47.40;19.80;;;;;;;;;;6247596;23;20092;-92
2022/01/27 00:20:35;;;;;;;47.42;19.23;;;;;;;;;;6245982;23;20197;-92
2022/01/27 00:23:41;;;;;;;50.03;20.10;;;;;;;;;;6223041;23;20095;-91
2022/01/27 00:26:36;;;;;;;51.42;21.33;;;;;;;;;;6248794;23;20334;-91
2022/01/27 00:29:14;;;;;;;46.80;20.42;;;;;;;;;;6246992;23;20024;-92
2022/01/27 00:31:56;;;;;;;45.55;20.77;;;;;;;;;;6246286;23;20024;-92
2022/01/27 00:34:24;;;;;;;50.40;21.20;;;;;;;;;;6246222;23;20441;-91
2022/01/27 00:36:52;;;;;;;52.92;20.92;;;;;;;;;;6219858;23;20388;-91
2022/01/27 00:39:22;;;;;;;45.17;19.35;;;;;;;;;;6247097;23;20023;-91
2022/01/27 00:41:51;;;;;;;44.85;20.20;;;;;;;;;;6247237;23;20724;-91
2022/01/27 00:44:18;;;;;;;46.38;19.00;;;;;;;;;;6248011;23;20019;-91
2022/01/27 00:46:45;;;;;;;51.60;20.10;;;;;;;;;;6247414;23;20031;-91
2022/01/27 00:49:12;;;;;;;46.75;19.92;;;;;;;;;;6243060;22;20031;-92
2022/01/27 00:51:43;;;;;;;51.25;21.35;;;;;;;;;;6238835;23;20024;-91
2022/01/27 00:54:16;;;;;;;54.03;21.45;;;;;;;;;;6238992;23;20020;-91
2022/01/27 00:56:49;;;;;;;44.10;19.60;;;;;;;;;;6238840;23;20105;-91
2022/01/27 00:59:27;;;;;;;42.25;19.23;;;;;;;;;;6239176;23;20490;-91
2022/01/27 01:02:02;;;;;;;48.47;20.85;;;;;;;;;;6239544;23;20016;-91
2022/01/27 01:04:34;;;;;;;45.90;21.40;;;;;;;;;;6239654;23;20050;-91
2022/01/27 01:07:01;;;;;;;44.70;18.90;;;;;;;;;;6215064;23;20356;-91
2022/01/27 01:15:13;;;;;;;47.55;20.38;;;;;;;;;;6239161;23;20016;-91
2022/01/27 01:18:00;;;;;;;48.00;20.98;;;;;;;;;;6240133;23;20040;-91
2022/01/27 01:21:01;;;;;;;52.80;22.27;;;;;;;;;;6239421;23;20070;-91
2022/01/27 01:31:51;;;;;;;49.05;21.23;;;;;;;;;;6241768;23;20062;-91
2022/01/27 01:34:20;;;;;;;53.00;23.00;;;;;;;;;;6238796;23;20047;-91
2022/01/27 01:36:55;;;;;;;49.17;21.20;;;;;;;;;;6239049;23;20579;-91
2022/01/27 01:39:22;;;;;;;49.13;22.15;;;;;;;;;;6238498;23;20016;-91
2022/01/27 01:41:49;;;;;;;52.53;23.42;;;;;;;;;;6238500;23;20031;-91
2022/01/27 01:44:16;;;;;;;47.92;22.25;;;;;;;;;;6238633;23;20032;-91
2022/01/27 01:46:44;;;;;;;51.95;22.88;;;;;;;;;;6238870;23;20086;-91
2022/01/27 01:49:11;;;;;;;45.20;21.55;;;;;;;;;;6238115;22;20086;-91
2022/01/27 01:51:39;;;;;;;48.95;22.83;;;;;;;;;;6240433;23;20082;-91
2022/01/27 01:54:08;;;;;;;48.88;21.80;;;;;;;;;;6238033;23;20768;-91
2022/01/27 01:56:35;;;;;;;55.08;24.40;;;;;;;;;;6238729;23;20031;-91
2022/01/27 01:59:02;;;;;;;50.92;23.35;;;;;;;;;;6239825;23;20428;-91
2022/01/27 02:01:29;;;;;;;49.25;21.73;;;;;;;;;;6239507;23;20093;-91
2022/01/27 02:03:59;;;;;;;43.45;20.73;;;;;;;;;;6239687;23;20024;-91
2022/01/27 02:06:32;;;;;;;49.95;21.25;;;;;;;;;;6239201;23;20031;-91
2022/01/27 02:09:14;;;;;;;49.85;21.23;;;;;;;;;;6237901;23;20070;-91
2022/01/27 02:20:03;;;;;;;55.58;23.63;;;;;;;;;;6238371;23;20027;-91
2022/01/27 02:22:30;;;;;;;52.88;23.08;;;;;;;;;;6240167;23;20016;-91
2022/01/27 02:24:57;;;;;;;54.58;21.35;;;;;;;;;;6237723;23;20446;-91
2022/01/27 02:27:24;;;;;;;44.70;19.58;;;;;;;;;;6238627;23;20019;-91
2022/01/27 02:29:51;;;;;;;46.72;21.45;;;;;;;;;;6237767;23;20020;-91
2022/01/27 02:32:22;;;;;;;50.97;22.13;;;;;;;;;;6237974;23;20020;-91
2022/01/27 02:34:48;;;;;;;49.53;22.20;;;;;;;;;;6238223;23;20023;-91
2022/01/27 02:37:17;;;;;;;51.55;21.73;;;;;;;;;;6238226;23;20633;-91
2022/01/27 02:39:43;;;;;;;48.88;21.83;;;;;;;;;;6238359;23;20016;-90
2022/01/27 02:42:12;;;;;;;50.35;21.05;;;;;;;;;;6238397;23;20086;-91
2022/01/27 02:44:45;;;;;;;50.28;22.27;;;;;;;;;;6237734;23;20053;-91
2022/01/27 02:47:12;;;;;;;46.85;21.73;;;;;;;;;;6239670;23;20028;-91
2022/01/27 02:49:39;;;;;;;47.33;22.42;;;;;;;;;;6237792;22;20023;-91
2022/01/27 02:52:06;;;;;;;51.55;20.85;;;;;;;;;;6238867;23;20020;-91
2022/01/27 02:54:36;;;;;;;45.28;21.50;;;;;;;;;;6237377;23;20756;-91
2022/01/27 02:57:03;;;;;;;48.40;20.27;;;;;;;;;;6237847;23;20016;-91
2022/01/27 02:59:30;;;;;;;46.88;20.77;;;;;;;;;;6238409;23;20027;-91
2022/01/27 03:01:56;;;;;;;50.78;21.27;;;;;;;;;;6237836;23;20020;-91
2022/01/27 03:04:25;;;;;;;46.63;20.80;;;;;;;;;;6238497;23;20020;-91
2022/01/27 03:06:52;;;;;;;47.92;23.63;;;;;;;;;;6239660;23;20046;-90
2022/01/27 03:09:19;;;;;;;59.28;23.63;;;;;;;;;;6237310;23;20074;-90
2022/01/27 03:11:48;;;;;;;46.65;21.35;;;;;;;;;;6238079;23;20024;-90
2022/01/27 03:14:17;;;;;;;55.67;23.02;;;;;;;;;;6238004;23;20023;-91
2022/01/27 03:16:44;;;;;;;49.72;21.45;;;;;;;;;;6237728;23;20535;-90
2022/01/27 03:19:11;;;;;;;51.60;21.65;;;;;;;;;;6237292;23;20024;-91
2022/01/27 03:21:38;;;;;;;54.35;22.45;;;;;;;;;;6238525;23;20477;-90
2022/01/27 03:24:06;;;;;;;48.85;19.67;;;;;;;;;;6238128;23;20078;-91
2022/01/27 03:26:32;;;;;;;49.17;21.75;;;;;;;;;;6237801;23;20024;-91
2022/01/27 03:29:02;;;;;;;49.35;22.48;;;;;;;;;;6239157;23;20028;-91
2022/01/27 03:31:35;;;;;;;53.65;23.63;;;;;;;;;;6238373;23;20396;-91
2022/01/27 03:34:02;;;;;;;55.17;22.50;;;;;;;;;;6237685;23;20082;-91
2022/01/27 03:36:29;;;;;;;55.22;24.17;;;;;;;;;;6238356;23;20086;-91
2022/01/27 03:39:05;;;;;;;47.15;21.08;;;;;;;;;;6237899;23;20016;-91
2022/01/27 03:41:34;;;;;;;37.67;16.90;;;;;;;;;;6238104;23;20020;-91
2022/01/27 03:44:03;;;;;;;51.08;22.83;;;;;;;;;;6237712;23;20036;-90
2022/01/27 03:46:30;;;;;;;55.05;23.17;;;;;;;;;;6237466;23;20032;-91
2022/01/27 03:48:57;;;;;;;57.67;23.73;;;;;;;;;;6237924;22;20548;-90
2022/01/27 03:51:24;;;;;;;49.83;24.02;;;;;;;;;;6237897;23;20052;-90
2022/01/27 03:53:50;;;;;;;51.83;24.05;;;;;;;;;;6237999;23;20020;-91
2022/01/27 03:56:17;;;;;;;51.65;23.77;;;;;;;;;;6237931;23;20070;-90
2022/01/27 03:58:44;;;;;;;49.78;22.88;;;;;;;;;;6237418;23;20055;-90
2022/01/27 04:01:12;;;;;;;55.15;23.35;;;;;;;;;;6238055;23;20020;-90
2022/01/27 04:03:39;;;;;;;57.60;25.25;;;;;;;;;;6237924;23;20043;-90
2022/01/27 04:06:08;;;;;;;54.03;22.80;;;;;;;;;;6237726;23;20024;-90
2022/01/27 04:08:37;;;;;;;62.05;23.77;;;;;;;;;;6238061;23;20020;-90
2022/01/27 04:11:04;;;;;;;56.65;23.48;;;;;;;;;;6237292;23;20078;-90
2022/01/27 04:13:31;;;;;;;61.53;24.42;;;;;;;;;;6237780;23;20078;-90
2022/01/27 04:15:58;;;;;;;53.72;21.52;;;;;;;;;;6237589;23;20024;-90
2022/01/27 04:18:27;;;;;;;52.97;25.83;;;;;;;;;;6237369;23;20044;-90
2022/01/27 04:20:55;;;;;;;54.67;23.65;;;;;;;;;;6237197;23;20020;-91
2022/01/27 04:23:23;;;;;;;60.72;24.27;;;;;;;;;;6238050;23;20365;-90
2022/01/27 04:25:50;;;;;;;58.97;25.85;;;;;;;;;;6239143;23;20032;-91
2022/01/27 04:28:23;;;;;;;54.95;23.08;;;;;;;;;;6239754;23;20722;-91
2022/01/27 04:30:52;;;;;;;54.97;24.50;;;;;;;;;;6239470;23;20086;-91
2022/01/27 04:33:23;;;;;;;59.42;26.42;;;;;;;;;;6239329;23;20032;-91
2022/01/27 04:35:54;;;;;;;56.35;25.25;;;;;;;;;;6239315;23;20529;-90
2022/01/27 04:38:42;;;;;;;58.17;24.70;;;;;;;;;;6239494;23;20024;-90
2022/01/27 04:41:15;;;;;;;56.75;25.73;;;;;;;;;;6239727;23;20086;-90
2022/01/27 04:43:49;;;;;;;61.40;27.60;;;;;;;;;;6239504;23;20016;-90
2022/01/27 04:46:26;;;;;;;50.10;22.33;;;;;;;;;;6239767;23;20515;-89
2022/01/27 04:49:06;;;;;;;49.50;23.50;;;;;;;;;;6238670;22;20385;-91
2022/01/27 04:51:36;;;;;;;58.47;26.02;;;;;;;;;;6238318;23;20103;-90
2022/01/27 04:54:09;;;;;;;54.50;25.25;;;;;;;;;;6239452;23;20432;-90
2022/01/27 04:56:38;;;;;;;60.80;24.98;;;;;;;;;;6239212;23;20020;-90
2022/01/27 04:59:12;;;;;;;51.05;24.75;;;;;;;;;;6239158;23;20036;-90
2022/01/27 05:01:43;;;;;;;51.42;24.27;;;;;;;;;;6238866;23;20020;-90
2022/01/27 05:04:16;;;;;;;59.88;24.52;;;;;;;;;;6238764;23;20020;-90
2022/01/27 05:06:47;;;;;;;48.17;21.77;;;;;;;;;;6213037;23;20028;-90
2022/01/27 05:09:14;;;;;;;58.67;25.25;;;;;;;;;;6212627;23;20026;-89
2022/01/27 05:11:47;;;;;;;54.20;25.30;;;;;;;;;;6239737;23;20515;-90
2022/01/27 05:14:18;;;;;;;60.42;25.40;;;;;;;;;;6239311;23;20043;-90
2022/01/27 05:16:45;;;;;;;54.08;25.00;;;;;;;;;;6237916;23;20024;-90
2022/01/27 05:19:12;;;;;;;51.10;22.63;;;;;;;;;;6239950;23;20054;-89
2022/01/27 05:21:39;;;;;;;53.00;23.10;;;;;;;;;;6239843;23;20024;-89
2022/01/27 05:24:09;;;;;;;49.30;23.00;;;;;;;;;;6241042;23;20058;-89
2022/01/27 05:26:36;;;;;;;51.97;22.23;;;;;;;;;;6241397;23;20020;-89
2022/01/27 05:29:08;;;;;;;46.40;22.08;;;;;;;;;;6215394;23;20024;-89
2022/01/27 05:31:35;;;;;;;56.70;23.25;;;;;;;;;;6242066;23;20036;-89
2022/01/27 05:34:19;;;;;;;45.67;21.23;;;;;;;;;;6241361;23;20031;-90
2022/01/27 05:45:32;;;;;;;51.08;21.63;;;;;;;;;;6240888;23;20114;-89
2022/01/27 05:48:12;;;;;;;44.97;21.50;;;;;;;;;;6241963;23;20028;-89
2022/01/27 05:50:39;;;;;;;48.17;21.15;;;;;;;;;;6212316;23;20016;-89
2022/01/27 05:53:06;;;;;;;46.75;22.08;;;;;;;;;;6210644;23;20381;-90
2022/01/27 05:55:34;;;;;;;53.25;24.02;;;;;;;;;;6211838;23;20024;-90
2022/01/27 05:58:01;;;;;;;48.08;20.80;;;;;;;;;;6211080;23;20457;-90
2022/01/27 06:00:28;;;;;;;50.03;22.48;;;;;;;;;;6211014;23;20021;-90
2022/01/27 06:02:55;;;;;;;48.58;24.08;;;;;;;;;;6211655;23;20027;-90
2022/01/27 06:05:22;;;;;;;45.70;22.13;;;;;;;;;;6211864;23;20032;-89
2022/01/27 06:07:49;;;;;;;57.40;26.48;;;;;;;;;;6212654;23;20024;-90
2022/01/27 06:10:15;;;;;;;55.55;25.92;;;;;;;;;;6209083;23;20338;-90
2022/01/27 06:12:48;;;;;;;53.00;24.33;;;;;;;;;;6211196;23;20048;-90
2022/01/27 06:15:15;;;;;;;49.40;23.13;;;;;;;;;;6211473;23;20024;-90
2022/01/27 06:17:42;;;;;;;52.60;23.90;;;;;;;;;;6211473;23;20051;-90
2022/01/27 06:20:09;;;;;;;50.03;21.23;;;;;;;;;;6211692;23;20027;-89
2022/01/27 06:22:36;;;;;;;50.70;23.35;;;;;;;;;;6212251;23;20017;-89
2022/01/27 06:25:04;;;;;;;52.65;23.92;;;;;;;;;;6211038;23;20051;-89
2022/01/27 06:27:30;;;;;;;50.38;23.55;;;;;;;;;;6210729;23;20055;-89
2022/01/27 06:29:58;;;;;;;47.97;23.35;;;;;;;;;;6211287;23;20024;-89
2022/01/27 06:32:25;;;;;;;49.55;23.08;;;;;;;;;;6210958;23;20083;-89
2022/01/27 06:34:51;;;;;;;59.65;25.08;;;;;;;;;;6210115;23;20052;-89
2022/01/27 06:37:18;;;;;;;55.10;21.70;;;;;;;;;;6210655;23;20044;-89
2022/01/27 06:39:45;;;;;;;48.70;23.45;;;;;;;;;;6211054;23;20641;-89
2022/01/27 06:42:11;;;;;;;53.65;23.08;;;;;;;;;;6210318;23;20047;-89
2022/01/27 06:44:38;;;;;;;51.35;22.33;;;;;;;;;;6211668;23;20053;-89
2022/01/27 06:47:06;;;;;;;48.30;24.17;;;;;;;;;;6209598;23;20050;-89
2022/01/27 06:49:33;;;;;;;48.67;22.67;;;;;;;;;;6224818;22;20095;-89
2022/01/27 06:52:00;;;;;;;52.67;23.27;;;;;;;;;;6238395;23;20020;-89
2022/01/27 06:54:27;;;;;;;45.78;20.77;;;;;;;;;;6237560;23;20024;-89
2022/01/27 06:56:54;;;;;;;51.55;22.90;;;;;;;;;;6241932;23;20020;-89
2022/01/27 06:59:21;;;;;;;46.30;20.95;;;;;;;;;;6241280;23;20020;-89
2022/01/27 07:01:48;;;;;;;43.33;20.52;;;;;;;;;;6237958;23;20088;-89
2022/01/27 07:04:16;;;;;;;48.00;23.63;;;;;;;;;;6237754;23;20365;-89
2022/01/27 07:06:43;;;;;;;45.75;23.90;;;;;;;;;;6238131;23;20081;-89
2022/01/27 07:09:10;;;;;;;50.58;23.17;;;;;;;;;;6240227;23;20082;-89
2022/01/27 07:11:37;;;;;;;49.28;21.73;;;;;;;;;;6240986;23;20024;-89
2022/01/27 07:14:04;;;;;;;42.45;21.83;;;;;;;;;;6240213;23;20020;-89
2022/01/27 07:16:33;;;;;;;53.50;23.85;;;;;;;;;;6240369;23;20461;-89
2022/01/27 07:19:00;;;;;;;51.53;22.63;;;;;;;;;;6240222;23;20071;-89
2022/01/27 07:21:28;;;;;;;48.83;23.40;;;;;;;;;;6241365;23;20016;-89
2022/01/27 07:23:54;;;;;;;47.53;21.90;;;;;;;;;;6240269;23;20048;-89
2022/01/27 07:26:25;;;;;;;51.17;24.55;;;;;;;;;;6241134;23;20020;-89
2022/01/27 07:28:52;;;;;;;47.22;23.17;;;;;;;;;;6238482;23;20024;-89
2022/01/27 07:31:19;;;;;;;49.42;24.23;;;;;;;;;;6239715;23;20055;-90
2022/01/27 07:33:47;;;;;;;48.33;23.38;;;;;;;;;;6238198;23;20484;-89
2022/01/27 07:36:16;;;;;;;49.13;22.88;;;;;;;;;;6238118;23;20012;-89
2022/01/27 07:38:46;;;;;;;53.58;24.58;;;;;;;;;;6241285;23;20024;-89
2022/01/27 07:41:14;;;;;;;48.72;21.73;;;;;;;;;;6240665;23;20027;-89
2022/01/27 07:43:41;;;;;;;44.85;21.67;;;;;;;;;;6240147;23;20078;-90
2022/01/27 07:46:08;;;;;;;47.17;22.15;;;;;;;;;;6239317;23;20058;-89
2022/01/27 07:48:36;;;;;;;47.83;21.75;;;;;;;;;;6237761;22;20050;-89
2022/01/27 07:51:07;;;;;;;47.00;21.58;;;;;;;;;;6209104;23;20035;-90
2022/01/27 07:53:34;;;;;;;44.00;21.05;;;;;;;;;;6209165;23;20453;-89
2022/01/27 07:56:02;;;;;;;49.83;21.92;;;;;;;;;;6208075;23;20354;-89
2022/01/27 07:58:29;;;;;;;44.22;20.75;;;;;;;;;;6207650;23;20747;-89
2022/01/27 08:00:55;;;;;;;41.15;20.30;;;;;;;;;;6212788;23;20508;-89
2022/01/27 08:03:22;;;;;;;46.55;21.50;;;;;;;;;;6212371;23;20521;-89
2022/01/27 08:05:49;;;;;;;40.72;18.70;;;;;;;;;;6213013;23;20072;-89
2022/01/27 08:08:15;;;;;;;39.63;19.42;;;;;;;;;;6213307;23;20021;-90
2022/01/27 08:10:42;;;;;;;41.47;19.75;;;;;;;;;;6212871;23;20113;-89
2022/01/27 08:13:10;;;;;;;38.22;20.02;;;;;;;;;;6213471;23;20063;-90
2022/01/27 08:15:37;;;;;;;32.50;18.45;;;;;;;;;;6213968;23;20020;-90
2022/01/27 08:18:04;;;;;;;37.63;19.85;;;;;;;;;;6213995;23;20025;-90
2022/01/27 08:20:31;;;;;;;44.53;21.50;;;;;;;;;;6212798;23;20075;-90
2022/01/27 08:23:05;;;;;;;44.47;21.55;;;;;;;;;;6212690;23;20287;-90
2022/01/27 08:25:33;;;;;;;40.03;20.30;;;;;;;;;;6212677;23;20073;-90
2022/01/27 08:28:15;;;;;;;44.08;20.58;;;;;;;;;;6213989;23;20029;-90
2022/01/27 08:31:02;;;;;;;38.60;18.85;;;;;;;;;;6214993;23;20020;-89
2022/01/27 08:33:30;;;;;;;;;;;;;;;;;;6213307;23;20025;-90
2022/01/27 08:35:58;;;;;;;36.78;17.77;;;;;;;;;;6212356;23;19931;-90
2022/01/27 08:38:25;;;;;;;34.05;16.60;;;;;;;;;;6213176;23;20043;-90
2022/01/27 08:40:52;;;;;;;30.77;15.80;;;;;;;;;;6212556;23;20063;-90
2022/01/27 08:43:19;;;;;;;26.88;15.43;;;;;;;;;;6212915;23;20024;-90
2022/01/27 08:45:46;;;;;;;31.10;15.52;;;;;;;;;;6212648;23;20020;-90
2022/01/27 08:48:38;;;;;;;27.73;14.98;;;;;;;;;;6213454;23;20040;-90
2022/01/27 08:51:10;;;;;;;25.48;14.82;;;;;;;;;;6182156;23;20021;-90
2022/01/27 08:53:37;;;;;;;23.38;13.55;;;;;;;;;;6182919;23;20025;-90
2022/01/27 08:56:07;;;;;;;29.80;14.88;;;;;;;;;;6182733;23;20546;-90
2022/01/27 08:58:34;;;;;;;27.38;14.40;;;;;;;;;;6182625;23;20024;-90
2022/01/27 09:01:03;;;;;;;27.98;13.95;;;;;;;;;;6182383;23;20017;-90
2022/01/27 09:03:34;;;;;;;27.55;14.05;;;;;;;;;;6183058;23;20029;-90
2022/01/27 09:06:01;;;;;;;25.10;13.32;;;;;;;;;;6213359;23;20024;-90
2022/01/27 09:08:27;;;;;;;23.10;12.52;;;;;;;;;;6213569;23;20030;-90
2022/01/27 09:10:55;;;;;;;30.77;13.60;;;;;;;;;;6212858;23;20028;-90
2022/01/27 09:13:23;;;;;;;31.30;14.25;;;;;;;;;;6212882;23;20020;-91
2022/01/27 09:15:50;;;;;;;27.80;13.98;;;;;;;;;;6212035;23;20040;-91
2022/01/27 09:18:19;;;;;;;28.80;14.80;;;;;;;;;;6212959;23;20726;-91
2022/01/27 09:20:48;;;;;;;28.48;13.38;;;;;;;;;;6212929;23;20070;-91
2022/01/27 09:23:16;;;;;;;24.52;13.80;;;;;;;;;;6213312;23;20016;-91
2022/01/27 09:28:40;;;;;;;22.77;11.98;;;;;;;;;;6211987;23;20078;-91
2022/01/27 09:35:08;;;;;;;23.05;12.38;;;;;;;;;;6062634;23;20099;-89
2022/01/27 09:38:08;;;;;;;;;;;;;;;;;;6063971;23;20027;-89
2022/01/27 09:40:46;;;;;;;20.20;11.70;;;;;;;;;;6063094;23;20393;-89
2022/01/27 09:43:14;;;;;;;19.95;10.98;;;;;;;;;;6058870;23;20038;-89
2022/01/27 09:45:41;;;;;;;22.98;11.27;;;;;;;;;;6062492;23;20023;-89
2022/01/27 09:48:15;;;;;;;22.77;11.32;;;;;;;;;;6063530;23;20528;-91
2022/01/27 09:51:23;;;;;;;23.17;11.43;;;;;;;;;;6061787;23;20320;-92
2022/01/27 09:54:13;;;;;;;21.23;11.63;;;;;;;;;;6061687;23;20082;-90
2022/01/27 09:56:49;;;;;;;17.45;10.50;;;;;;;;;;6062867;23;20050;-89
2022/01/27 09:59:25;;;;;;;23.90;12.00;;;;;;;;;;6062810;23;20018;-90
2022/01/27 10:01:58;;;;;;;18.88;10.50;;;;;;;;;;6038452;23;20129;-91
2022/01/27 10:04:46;;;;;;;18.63;10.55;;;;;;;;;;6077036;23;20087;-90
2022/01/27 10:07:14;;;;;;;;;;;;;;;;;;6122364;23;20059;-90
2022/01/27 10:09:58;;;;;;;18.98;8.70;;;;;;;;;;6224568;23;19938;-91
2022/01/27 10:12:37;;;;;;;21.08;10.48;;;;;;;;;;6242565;23;20031;-90
2022/01/27 10:15:09;;;;;;;18.13;10.70;;;;;;;;;;6243576;22;20031;-90
2022/01/27 10:17:43;;;;;;;18.00;10.07;;;;;;;;;;6243977;23;20027;-91
2022/01/27 10:20:39;;;;;;;18.27;10.00;;;;;;;;;;6243336;23;20411;-91
2022/01/27 10:23:31;;;;;;;17.85;10.10;;;;;;;;;;6218612;23;20453;-91
2022/01/27 10:26:10;;;;;;;20.38;10.73;;;;;;;;;;6243683;23;20377;-91
2022/01/27 10:31:41;;;;;;;19.33;10.55;;;;;;;;;;6240716;23;20020;-91
2022/01/27 10:35:04;;;;;;;18.70;10.18;;;;;;;;;;6242032;23;20099;-91
2022/01/27 10:41:42;;;;;;;19.25;10.55;;;;;;;;;;6140319;23;20029;-92
2022/01/27 10:53:31;;;;;;;21.60;11.10;;;;;;;;;;6231486;23;20020;-91
2022/01/27 11:09:08;;;;;;;21.38;10.80;;;;;;;;;;6146611;23;20245;-91
2022/01/27 11:11:59;;;;;;;21.45;10.02;;;;;;;;;;6098963;23;20562;-91
2022/01/27 12:08:30;;;;;;;20.38;10.65;;;;;;;;;;6034344;23;20093;-92
2022/01/27 14:20:55;;;;;;;14.07;6.57;;;;;;;;;;6212111;22;20059;-93
2022/01/27 14:27:20;;;;;;;12.32;5.75;;;;;;;;;;6213156;23;20091;-93
2022/01/27 14:40:09;;;;;;;12.43;6.20;;;;;;;;;;6117913;23;20026;-93
2022/01/27 14:49:53;;;;;;;12.50;5.68;;;;;;;;;;6238018;22;20720;-77
2022/01/27 14:52:25;;;;;;;13.05;5.13;;;;;;;;;;6225719;23;20024;-78
2022/01/27 14:54:53;;;;;;;13.80;7.43;;;;;;;;;;6207835;23;20092;-77
2022/01/27 14:57:21;;;;;;;12.80;5.63;;;;;;;;;;6209835;23;20021;-77
2022/01/27 14:59:47;;;;;;;11.65;6.18;;;;;;;;;;6210016;23;20087;-77
2022/01/27 15:02:14;;;;;;;11.07;6.10;;;;;;;;;;6210403;23;20031;-77
2022/01/27 15:04:41;;;;;;;10.50;5.53;;;;;;;;;;6209159;23;20021;-77
2022/01/27 15:07:07;;;;;;;11.20;5.40;;;;;;;;;;6209508;23;20131;-77
2022/01/27 15:09:34;;;;;;;9.30;5.32;;;;;;;;;;6209459;23;20055;-77
2022/01/27 15:12:01;;;;;;;11.75;5.47;;;;;;;;;;6209587;23;20814;-76
2022/01/27 15:19:58;;;;;;;13.98;6.25;;;;;;;;;;6207382;23;20028;-77
2022/01/27 15:22:27;;;;;;;15.98;6.55;;;;;;;;;;6209416;23;20123;-77
2022/01/27 15:24:55;;;;;;;12.60;6.47;;;;;;;;;;6208670;23;20051;-78
2022/01/27 15:27:21;;;;;;;9.90;5.85;;;;;;;;;;6210206;23;20096;-76
2022/01/27 15:29:53;;;;;;;12.70;6.35;;;;;;;;;;6208165;23;20059;-79
2022/01/27 15:32:34;;;;;;;13.27;6.93;;;;;;;;;;6214930;23;20099;-80
2022/01/27 15:35:02;;;;;;;11.95;6.47;;;;;;;;;;6212336;23;20020;-77
2022/01/27 15:37:30;;;;;;;15.20;8.48;;;;;;;;;;6212367;23;20069;-78
2022/01/27 15:39:57;;;;;;;12.95;6.72;;;;;;;;;;6211782;23;20024;-78
2022/01/27 15:42:24;;;;;;;16.05;8.05;;;;;;;;;;6211971;23;20020;-78
2022/01/27 15:44:54;;;;;;;14.40;6.82;;;;;;;;;;6211075;23;20135;-78
2022/01/27 15:47:22;;;;;;;16.23;7.57;;;;;;;;;;6212577;23;20020;-79
2022/01/27 15:49:49;;;;;;;15.20;7.15;;;;;;;;;;6214287;23;20064;-79
2022/01/27 18:59:33;;;;;;;31.80;15.45;;;;;;;;;;5888692;24;20427;-77
2022/01/27 19:29:44;;;;;;;22.17;10.70;;;;;;;;;;5816457;24;20105;-78
2022/01/27 19:53:23;;;;;;;20.38;9.93;;;;;;;;;;5741498;24;20042;-77
2022/01/27 21:18:55;;;;;;;19.75;10.32;;;;;;;;;;5743943;24;20033;-77
2022/01/27 21:22:00;;;;;;;19.83;10.32;;;;;;;;;;5837840;24;20317;-80
2022/01/27 21:24:37;;;;;;;23.75;11.35;;;;;;;;;;5839435;24;20033;-79
2022/01/27 22:00:12;;;;;;;27.70;13.27;;;;;;;;;;5796252;24;20018;-77
2022/01/27 22:02:39;;;;;;;27.15;12.48;;;;;;;;;;5865774;24;20022;-77
2022/01/27 22:05:19;;;;;;;21.77;11.82;;;;;;;;;;5865433;24;20087;-77
2022/01/27 22:10:55;;;;;;;25.95;12.63;;;;;;;;;;5840008;24;20033;-77
2022/01/27 23:12:07;;;;;;;17.77;8.65;;;;;;;;;;5701004;24;20020;-76
2022/01/27 23:14:41;;;;;;;18.15;9.43;;;;;;;;;;5800053;24;20022;-77
2022/01/27 23:17:15;;;;;;;17.42;8.75;;;;;;;;;;5855275;24;20029;-77
2022/01/27 23:19:48;;;;;;;16.27;7.95;;;;;;;;;;5918414;24;20738;-76
2022/01/27 23:22:28;;;;;;;20.35;10.07;;;;;;;;;;5918957;24;20059;-77
2022/01/27 23:24:57;;;;;;;18.42;9.45;;;;;;;;;;5919309;24;20029;-76
2022/01/27 23:27:25;;;;;;;14.20;7.70;;;;;;;;;;5918589;24;20021;-76
2022/01/27 23:29:55;;;;;;;18.60;8.82;;;;;;;;;;5919011;24;20368;-77
2022/01/27 23:32:22;;;;;;;16.05;9.30;;;;;;;;;;5918503;24;20029;-76
2022/01/27 23:34:50;;;;;;;13.93;7.57;;;;;;;;;;5918767;24;20025;-77
2022/01/27 23:37:42;;;;;;;15.82;8.38;;;;;;;;;;5946950;24;20025;-77
2022/01/27 23:40:30;;;;;;;17.55;8.90;;;;;;;;;;5972291;24;20030;-76
2022/01/27 23:43:08;;;;;;;16.30;7.35;;;;;;;;;;5973762;24;20024;-76
2022/01/27 23:45:43;;;;;;;16.25;7.55;;;;;;;;;;6103872;23;20478;-77
2022/01/27 23:48:23;;;;;;;17.55;7.72;;;;;;;;;;6117644;23;20032;-77
2022/01/27 23:51:06;;;;;;;14.18;7.85;;;;;;;;;;6117692;23;20025;-77
2022/01/27 23:53:39;;;;;;;14.50;7.25;;;;;;;;;;6117141;23;20064;-77
2022/01/27 23:56:10;;;;;;;16.58;8.40;;;;;;;;;;6116864;23;20077;-77
2022/01/27 23:58:46;;;;;;;14.45;7.75;;;;;;;;;;6117624;23;20022;-77
